Time;durP1;ratioP1;P1;durP2;ratioP2;P2;SDS_P1;SDS_P2;PMS_P1;PMS_P2;Temp;Humidity;BMP_temperature;BMP_pressure;BME280_temperature;BME280_humidity;BME280_pressure;Samples;Min_cycle;Max_cycle;Signal;HPM_P1;HPM_P2
2021/12/05 00:23:31;;;;;;;77.60;25.77;;;;;;;-0.82;100.00;99285.88;10471557;28;20075;-93
2021/12/05 01:16:13;;;;;;;50.95;18.65;;;;;;;-2.36;100.00;99075.44;10482168;28;20036;-94
2021/12/05 01:21:20;;;;;;;48.80;17.77;;;;;;;-2.17;100.00;98992.00;10452865;28;20391;-94
2021/12/05 02:32:02;;;;;;;36.15;17.90;;;;;;;-4.10;100.00;98867.88;10496317;28;20390;-89
2021/12/05 02:42:44;;;;;;;40.40;16.83;;;;;;;-2.39;100.00;99269.13;10494247;28;20028;-89
2021/12/05 02:48:03;;;;;;;36.42;16.40;;;;;;;-3.97;100.00;98918.13;10483144;28;20122;-94
2021/12/05 02:53:31;;;;;;;35.27;15.93;;;;;;;-5.19;100.00;98634.81;10475764;28;20137;-89
2021/12/05 02:59:04;;;;;;;30.52;14.65;;;;;;;-1.71;100.00;99148.13;10495974;28;20036;-94
2021/12/05 03:04:06;;;;;;;32.07;15.60;;;;;;;-1.96;100.00;99115.72;10494594;28;20536;-89
2021/12/05 03:09:43;;;;;;;;;;;;;;;;;;;;;
2021/12/05 03:15:09;;;;;;;33.45;15.07;;;;;;;-3.48;100.00;98945.56;10505437;28;20046;-94
2021/12/05 03:20:25;;;;;;;31.40;15.83;;;;;;;-1.74;100.00;99105.38;10486235;28;20063;-89
2021/12/05 03:25:51;;;;;;;;;;;;;;;;;;;;;
2021/12/05 03:30:54;;;;;;;33.57;16.00;;;;;;;0.29;100.00;99597.38;10515086;28;20437;-94
2021/12/05 03:37:00;;;;;;;38.53;18.15;;;;;;;-2.94;100.00;98979.34;10503786;28;20044;-89
2021/12/05 03:48:48;;;;;;;37.60;16.90;;;;;;;-2.56;100.00;99139.38;10548131;28;20032;-94
2021/12/05 03:54:10;;;;;;;37.23;19.20;;;;;;;-4.15;100.00;98760.22;10483969;28;20039;-89
2021/12/05 03:59:32;;;;;;;;;;;;;;;;;;;;;
2021/12/05 04:05:45;;;;;;;49.92;22.10;;;;;;;-1.36;100.00;99196.28;10518656;28;20059;-89
2021/12/05 04:11:27;;;;;;;;;;;;;;;;;;;;;
2021/12/05 04:16:38;;;;;;;;;;;;;;;;;;;;;
2021/12/05 04:22:05;;;;;;;50.72;23.10;;;;;;;-1.42;100.00;99311.34;10520600;28;20040;-90
2021/12/05 04:27:58;;;;;;;54.00;24.77;;;;;;;-3.09;100.00;98958.06;10500426;28;20089;-90
2021/12/05 04:33:23;;;;;;;58.77;24.97;;;;;;;-1.51;100.00;99253.28;10484753;28;20048;-90
2021/12/05 04:39:05;;;;;;;55.85;25.70;;;;;;;2.41;100.00;99759.09;10485438;28;20036;-89
2021/12/05 04:44:55;;;;;;;63.22;25.30;;;;;;;-2.88;100.00;99018.88;10493295;28;20047;-94
2021/12/05 04:50:13;;;;;;;;;;;;;;;;;;;;;
2021/12/05 04:55:42;;;;;;;51.97;25.00;;;;;;;0.27;100.00;99485.75;10443161;28;20032;-89
2021/12/05 05:00:57;;;;;;;58.15;25.45;;;;;;;-0.98;100.00;99440.38;10495008;28;20036;-93
2021/12/05 05:06:20;;;;;;;56.67;26.90;;;;;;;-3.07;100.00;99052.91;10480918;28;20044;-94
2021/12/05 05:11:58;;;;;;;51.13;22.88;;;;;;;-2.51;100.00;99142.25;10349916;28;20050;-89
2021/12/05 05:17:20;;;;;;;;;;;;;;;;;;;;;
2021/12/05 05:22:45;;;;;;;51.13;21.10;;;;;;;-3.52;100.00;98910.16;10360721;28;20038;-90
2021/12/05 05:51:04;;;;;;;37.40;17.33;;;;;;;-0.16;100.00;99592.84;10502552;28;20058;-89
2021/12/05 05:56:34;;;;;;;37.57;16.77;;;;;;;-4.51;100.00;98836.69;10494215;28;20066;-94
2021/12/05 06:06:53;;;;;;;39.33;15.67;;;;;;;2.20;100.00;99970.31;10493774;28;20048;-93
2021/12/05 06:11:59;;;;;;;34.10;14.53;;;;;;;-4.88;100.00;98822.88;10476815;28;20412;-89
2021/12/05 06:17:09;;;;;;;;;;;;;;;;;;;;;
2021/12/05 06:22:18;;;;;;;34.00;14.80;;;;;;;0.73;100.00;99676.88;10495437;28;20028;-93
2021/12/05 06:27:27;;;;;;;30.15;12.77;;;;;;;-2.44;100.00;99275.97;10491268;28;20028;-89
2021/12/05 06:49:26;;;;;;;23.53;11.37;;;;;;;-4.73;100.00;98864.81;10511592;28;20039;-93
2021/12/05 06:54:35;;;;;;;23.73;9.52;;;;;;;-2.86;100.00;99258.34;10473916;28;20447;-93
2021/12/05 07:00:05;;;;;;;31.10;10.77;;;;;;;-0.84;100.00;99650.03;10499577;28;20032;-93
2021/12/05 07:05:42;;;;;;;22.43;10.20;;;;;;;1.99;100.00;100114.59;10485881;28;20047;-93
2021/12/05 07:21:28;;;;;;;24.23;9.70;;;;;;;-2.92;100.00;99334.56;10506546;28;19908;-93
2021/12/05 07:43:06;;;;;;;28.17;10.75;;;;;;;0.07;100.00;99922.47;10492334;28;20506;-95
2021/12/05 07:48:11;;;;;;;21.90;10.10;;;;;;;1.81;100.00;100143.28;10510582;28;20092;-89
2021/12/05 07:53:44;;;;;;;31.73;11.37;;;;;;;-3.89;100.00;99344.56;10479339;28;20475;-89
2021/12/05 08:20:59;;;;;;;29.80;11.93;;;;;;;0.25;100.00;99728.78;10466773;28;20089;-89
2021/12/05 08:26:23;;;;;;;36.37;11.73;;;;;;;-1.11;100.00;99671.66;10518645;28;20128;-87
2021/12/05 09:39:12;;;;;;;34.53;15.10;;;;;;;-0.38;100.00;99684.25;10504166;28;20127;-89
2021/12/05 10:14:10;;;;;;;;;;;;;;;;;;;;;
2021/12/05 10:41:22;;;;;;;36.70;14.77;;;;;;;-2.95;100.00;99394.25;10507462;28;20127;-90
2021/12/05 10:46:50;;;;;;;33.65;14.95;;;;;;;0.82;100.00;99870.63;10493025;28;20422;-89
2021/12/05 10:52:25;;;;;;;;;;;;;;;;;;;;;
2021/12/05 10:58:01;;;;;;;30.38;14.07;;;;;;;-3.13;100.00;99336.38;10516143;28;20036;-94
2021/12/05 11:03:35;;;;;;;33.67;14.25;;;;;;;1.08;100.00;100088.41;10474152;28;20027;-89
2021/12/05 11:08:50;;;;;;;;;;;;;;;;;;;;;
2021/12/05 11:14:01;;;;;;;43.30;16.30;;;;;;;1.96;100.00;100267.91;10507469;28;20048;-89
2021/12/05 11:19:41;;;;;;;;;;;;;;;;;;;;;
2021/12/05 11:25:32;;;;;;;36.47;16.20;;;;;;;-0.44;100.00;99702.16;10506183;28;20048;-96
2021/12/05 11:30:47;;;;;;;36.90;17.38;;;;;;;0.83;100.00;100048.44;10502194;28;20090;-93
2021/12/05 11:35:58;;;;;;;35.35;16.70;;;;;;;-2.04;100.00;99606.75;10513598;28;20131;-87
2021/12/05 11:41:07;;;;;;;36.00;18.08;;;;;;;-2.37;100.00;99634.44;10495089;28;20032;-88
2021/12/05 11:46:15;;;;;;;34.70;17.25;;;;;;;1.40;100.00;100223.09;10497156;28;20548;-86
2021/12/05 11:51:28;;;;;;;31.58;15.60;;;;;;;-0.33;100.00;99954.91;10480658;28;20028;-93
2021/12/05 11:56:32;;;;;;;28.45;12.98;;;;;;;1.35;100.00;99969.84;10497362;28;20024;-95
2021/12/05 12:01:46;;;;;;;30.30;12.85;;;;;;;2.98;100.00;100172.88;10513555;28;20088;-94
2021/12/05 12:07:14;;;;;;;27.33;13.50;;;;;;;-1.68;100.00;99578.59;10494442;28;20047;-87
2021/12/05 12:12:14;;;;;;;25.63;12.65;;;;;;;0.83;100.00;99883.13;10495819;28;20067;-93
2021/12/05 12:17:18;;;;;;;23.52;10.73;;;;;;;1.51;100.00;99896.13;10479451;28;20052;-95
2021/12/05 12:22:21;;;;;;;19.73;10.25;;;;;;;1.31;100.00;100020.16;10478952;28;20024;-88
2021/12/05 12:27:24;;;;;;;20.35;9.30;;;;;;;0.50;100.00;99693.69;10478381;28;20481;-95
2021/12/05 12:32:52;;;;;;;17.95;9.52;;;;;;;3.36;100.00;100180.06;10486286;28;20028;-88
2021/12/05 12:38:34;;;;;;;20.63;8.35;;;;;;;-0.50;100.00;99677.84;10493731;28;20459;-89
2021/12/05 12:43:51;;;;;;;19.25;9.60;;;;;;;3.59;100.00;100175.88;10513917;28;20039;-96
2021/12/05 12:48:57;;;;;;;15.90;9.38;;;;;;;-2.29;100.00;99483.28;10497099;28;20026;-88
2021/12/05 12:54:03;;;;;;;21.35;9.65;;;;;;;-2.31;100.00;99477.28;10509841;28;20108;-95
2021/12/05 12:59:14;;;;;;;21.02;8.70;;;;;;;1.56;100.00;100012.94;10486644;28;20494;-96
2021/12/05 13:10:35;;;;;;;21.20;8.40;;;;;;;3.12;100.00;100281.56;10443118;28;20075;-87
2021/12/05 13:15:52;;;;;;;20.20;9.95;;;;;;;2.08;100.00;100113.28;10407648;28;20433;-87
2021/12/05 13:21:02;;;;;;;18.85;9.75;;;;;;;-0.94;100.00;99811.75;10427739;28;20028;-94
2021/12/05 13:26:23;;;;;;;18.55;9.57;;;;;;;4.30;100.00;100418.81;10428092;28;20415;-94
2021/12/05 13:31:32;;;;;;;17.35;9.30;;;;;;;2.03;100.00;100104.97;10426859;28;20029;-94
2021/12/05 13:36:33;;;;;;;18.38;9.65;;;;;;;0.60;100.00;100052.41;10442688;28;20052;-87
2021/12/05 13:41:33;;;;;;;20.02;11.60;;;;;;;0.57;100.00;99874.03;10440023;28;20112;-87
2021/12/05 13:46:38;;;;;;;16.00;10.30;;;;;;;-2.55;100.00;99461.69;10423666;28;20036;-87
2021/12/05 13:51:39;;;;;;;16.80;10.70;;;;;;;1.00;100.00;100101.13;10406392;28;20045;-87
2021/12/05 13:56:43;;;;;;;21.67;10.35;;;;;;;1.34;100.00;100091.03;10407559;28;20469;-95
2021/12/05 14:01:45;;;;;;;23.10;11.82;;;;;;;1.45;100.00;100070.56;10442268;28;20503;-87
2021/12/05 14:07:13;;;;;;;27.02;11.82;;;;;;;1.34;100.00;100204.94;10437023;28;20508;-87
2021/12/05 14:12:27;;;;;;;29.35;12.27;;;;;;;-0.97;100.00;99914.81;10464565;28;20127;-87
2021/12/05 14:17:35;;;;;;;27.70;11.93;;;;;;;0.43;100.00;100238.00;10452252;28;20033;-95
2021/12/05 14:22:36;;;;;;;23.20;12.20;;;;;;;-0.75;100.00;99837.94;10463536;28;20033;-87
2021/12/05 14:27:40;;;;;;;23.30;13.05;;;;;;;1.61;100.00;100286.31;10440436;28;20033;-87
2021/12/05 14:32:42;;;;;;;33.13;14.65;;;;;;;-0.14;100.00;99952.44;10454658;28;20037;-95
2021/12/05 14:37:44;;;;;;;24.98;13.23;;;;;;;-0.48;100.00;99913.69;10436665;28;20032;-95
2021/12/05 14:42:50;;;;;;;23.30;13.23;;;;;;;0.95;100.00;100178.69;10434413;28;20031;-95
2021/12/05 14:48:00;;;;;;;26.98;14.10;;;;;;;-0.23;100.00;99958.06;10434332;28;20036;-95
2021/12/05 14:53:09;;;;;;;29.25;14.57;;;;;;;-3.20;100.00;99742.03;10434279;28;20129;-87
2021/12/05 14:58:14;;;;;;;26.98;14.93;;;;;;;-0.72;100.00;100069.19;10436301;28;20044;-95
2021/12/05 15:03:19;;;;;;;31.67;16.55;;;;;;;-1.68;100.00;99918.63;10443473;28;20016;-94
2021/12/05 15:08:25;;;;;;;33.22;15.73;;;;;;;-3.62;100.00;99514.16;10412789;28;20044;-95
2021/12/05 15:13:26;;;;;;;30.30;15.07;;;;;;;3.53;100.00;100702.06;10392171;28;20044;-95
2021/12/05 15:18:32;;;;;;;34.15;16.08;;;;;;;2.95;100.00;100657.34;10407861;28;20025;-95
2021/12/05 15:23:35;;;;;;;38.35;18.00;;;;;;;-1.50;100.00;99962.13;10405281;28;20554;-87
2021/12/05 15:28:36;;;;;;;37.60;16.33;;;;;;;1.23;100.00;100333.03;10406785;28;20067;-95
2021/12/05 15:33:40;;;;;;;33.40;17.30;;;;;;;-0.59;100.00;100076.50;10393107;28;20044;-94
2021/12/05 15:38:40;;;;;;;37.53;19.90;;;;;;;-0.71;100.00;100197.88;10423499;28;20036;-95
2021/12/05 15:43:43;;;;;;;41.20;18.57;;;;;;;-2.03;100.00;100119.03;10392303;28;20495;-94
2021/12/05 15:48:46;;;;;;;44.63;19.95;;;;;;;0.74;100.00;100293.50;10404427;28;20116;-87
2021/12/05 15:53:48;;;;;;;37.33;17.52;;;;;;;1.47;100.00;100535.06;10421372;28;20114;-87
2021/12/05 15:59:00;;;;;;;45.57;20.90;;;;;;;-3.31;100.00;99820.56;10441380;28;20036;-95
2021/12/05 16:04:04;;;;;;;46.67;21.70;;;;;;;-1.72;100.00;100144.03;10411140;28;20376;-95
2021/12/05 16:09:18;;;;;;;44.47;21.08;;;;;;;1.61;100.00;100623.63;10416216;28;20135;-94
2021/12/05 16:14:39;;;;;;;50.50;23.87;;;;;;;-1.57;100.00;99980.16;10454335;28;20055;-95
2021/12/05 16:19:40;;;;;;;46.13;22.42;;;;;;;-0.70;100.00;100240.94;10454219;28;20041;-95
2021/12/05 16:24:40;;;;;;;51.35;22.73;;;;;;;-0.21;100.00;100432.09;10446043;28;20041;-87
2021/12/05 16:29:41;;;;;;;41.50;21.42;;;;;;;-1.91;100.00;100092.34;10451843;28;20111;-87
2021/12/05 16:34:46;;;;;;;49.00;22.23;;;;;;;-0.16;100.00;100334.13;10412811;28;20044;-94
2021/12/05 16:39:51;;;;;;;45.67;23.20;;;;;;;-0.31;100.00;100288.22;10415875;28;20041;-95
2021/12/05 16:44:57;;;;;;;43.42;21.80;;;;;;;1.61;100.00;100829.00;10435520;28;20040;-87
2021/12/05 16:49:59;;;;;;;44.00;21.60;;;;;;;-1.75;100.00;100098.53;10428831;28;20040;-88
2021/12/05 16:55:08;;;;;;;39.67;20.53;;;;;;;-2.43;100.00;100212.06;10405338;28;20369;-95
2021/12/05 17:00:15;;;;;;;45.72;20.75;;;;;;;-2.56;100.00;100137.25;10419117;28;20059;-91
2021/12/05 17:05:27;;;;;;;45.40;22.57;;;;;;;0.89;100.00;100661.94;10451634;28;20037;-93
2021/12/05 17:10:27;;;;;;;51.13;24.23;;;;;;;0.91;100.00;100563.16;10420111;28;20048;-92
2021/12/05 17:15:31;;;;;;;44.67;21.65;;;;;;;-2.55;100.00;100186.59;10469609;28;20046;-95
2021/12/05 17:20:47;;;;;;;41.57;20.27;;;;;;;1.84;100.00;100814.34;10455191;28;20094;-95
2021/12/05 17:26:00;;;;;;;;;;;;;;;;;;;;;
2021/12/05 17:31:11;;;;;;;41.13;21.27;;;;;;;2.40;100.00;100974.56;10458915;28;20032;-95
2021/12/05 17:36:32;;;;;;;43.50;21.77;;;;;;;-2.44;100.00;100275.06;10432310;28;20029;-88
2021/12/05 17:41:35;;;;;;;41.83;20.43;;;;;;;-0.28;100.00;100639.50;10445034;28;20031;-88
2021/12/05 17:46:37;;;;;;;43.77;21.53;;;;;;;2.17;100.00;101010.97;10427948;28;20024;-87
2021/12/05 17:51:39;;;;;;;48.50;22.43;;;;;;;-4.45;100.00;100019.72;10429972;28;20033;-85
2021/12/05 17:56:51;;;;;;;49.97;23.30;;;;;;;-4.49;100.00;100021.91;10456542;28;20982;-88
2021/12/05 18:07:22;;;;;;;41.97;21.37;;;;;;;-3.65;100.00;100067.66;10451385;28;20067;-90
2021/12/05 18:12:37;;;;;;;48.28;22.45;;;;;;;-1.79;100.00;100418.38;10460131;28;20040;-88
2021/12/05 18:17:41;;;;;;;55.83;24.47;;;;;;;-0.88;100.00;100605.41;10460613;28;20473;-88
2021/12/05 18:22:44;;;;;;;57.93;24.97;;;;;;;-5.99;100.00;99785.09;10459233;28;20031;-87
2021/12/05 18:27:48;;;;;;;60.33;26.23;;;;;;;-4.00;100.00;100036.88;10463730;28;20123;-87
2021/12/05 18:32:52;;;;;;;59.23;28.33;;;;;;;-1.28;100.00;100618.28;10490099;28;20059;-88
2021/12/05 18:37:55;;;;;;;60.37;28.03;;;;;;;-0.24;100.00;100889.72;10470489;28;20148;-88
2021/12/05 18:43:03;;;;;;;62.37;28.67;;;;;;;-2.07;100.00;100389.28;10457248;28;20036;-89
2021/12/05 18:48:21;;;;;;;;;;;;;;;;;;;;;
2021/12/05 18:53:35;;;;;;;;;;;;;;;;;;;;;
2021/12/05 18:58:54;;;;;;;65.07;31.77;;;;;;;-1.37;100.00;100584.31;10479130;28;20036;-88
2021/12/05 19:11:41;;;;;;;58.57;26.20;;;;;;;-5.70;100.00;100032.94;10448010;28;20049;-88
2021/12/05 19:15:41;;;;;;;52.03;25.57;;;;;;;-2.49;100.00;100574.00;10440258;28;20044;-88
2021/12/05 19:20:38;;;;;;;52.70;26.45;;;;;;;-3.48;100.00;100385.06;10446758;28;20044;-88
2021/12/05 19:26:07;;;;;;;49.50;25.13;;;;;;;-4.09;100.00;100317.56;10413436;28;20043;-88
2021/12/05 19:31:18;;;;;;;59.47;28.23;;;;;;;-2.32;100.00;100601.69;10408789;28;20024;-88
2021/12/05 19:36:48;;;;;;;42.17;22.97;;;;;;;1.55;100.00;101312.78;10428869;28;20024;-89
2021/12/05 19:42:22;;;;;;;;;;;;;;;;;;;;;
2021/12/05 19:47:28;;;;;;;36.93;20.77;;;;;;;-2.73;100.00;100615.34;10461649;28;20493;-93
2021/12/05 19:59:08;;;;;;;37.87;21.10;;;;;;;-5.76;100.00;100092.59;10510729;28;20033;-95
2021/12/05 20:04:26;;;;;;;30.20;17.40;;;;;;;-3.98;100.00;100249.94;10477897;28;20028;-95
2021/12/05 20:09:29;;;;;;;30.93;18.17;;;;;;;-2.86;100.00;100696.72;10495226;28;20387;-95
2021/12/05 20:15:05;;;;;;;32.20;16.77;;;;;;;-5.18;100.00;100308.91;10515301;28;20044;-95
2021/12/05 20:20:16;;;;;;;28.67;16.30;;;;;;;-1.08;100.00;100786.97;10474823;28;20071;-88
2021/12/05 20:25:21;;;;;;;28.93;17.07;;;;;;;-4.63;100.00;100328.03;10483580;28;20039;-87
2021/12/05 20:30:25;;;;;;;30.13;16.33;;;;;;;0.77;100.00;101176.56;10481321;28;20024;-91
2021/12/05 20:36:02;;;;;;;30.93;18.47;;;;;;;-3.60;100.00;100645.59;10466661;28;20476;-95
2021/12/05 20:41:12;;;;;;;29.03;15.33;;;;;;;-5.27;100.00;100256.25;10474605;28;20028;-94
2021/12/05 20:46:35;;;;;;;25.17;15.13;;;;;;;-1.64;100.00;100883.50;10503306;28;20032;-94
2021/12/05 20:51:40;;;;;;;33.00;17.13;;;;;;;-3.34;100.00;100536.94;10480565;28;20102;-95
2021/12/05 20:56:55;;;;;;;27.97;15.70;;;;;;;-5.17;100.00;100254.22;10478889;28;20131;-94
2021/12/05 21:02:17;;;;;;;30.30;16.33;;;;;;;-1.02;100.00;101123.19;10497659;28;20039;-88
2021/12/05 21:13:23;;;;;;;33.70;17.90;;;;;;;-5.90;100.00;100338.84;10481333;28;20044;-89
2021/12/05 21:19:11;;;;;;;;;;;;;;;;;;;;;
2021/12/05 21:24:34;;;;;;;37.27;19.03;;;;;;;-2.69;100.00;100795.41;10508670;28;20036;-89
2021/12/05 21:30:06;;;;;;;38.27;20.03;;;;;;;-6.18;100.00;100232.91;10462285;28;20070;-89
2021/12/05 21:35:17;;;;;;;39.17;19.77;;;;;;;-6.91;100.00;100028.13;10495998;28;20032;-88
2021/12/05 21:40:55;;;;;;;;;;;;;;;;;;;;;
2021/12/05 21:46:07;;;;;;;38.20;19.27;;;;;;;-3.75;100.00;100586.25;10511855;28;20391;-89
2021/12/05 21:52:03;;;;;;;43.33;21.60;;;;;;;-2.76;100.00;100821.31;10493194;28;20044;-89
2021/12/05 21:58:10;;;;;;;39.55;20.58;;;;;;;-6.57;100.00;100244.13;10510406;28;20075;-95
2021/12/05 22:03:51;;;;;;;;;;;;;;;;;;;;;
2021/12/05 22:08:58;;;;;;;44.97;21.90;;;;;;;-4.16;100.00;100688.38;10527448;28;20118;-89
2021/12/05 22:13:58;;;;;;;;;;;;;;;0.49;100.00;101230.44;10475099;28;20391;-88
2021/12/05 22:19:05;;;;;;;46.23;22.87;;;;;;;-3.55;100.00;100664.78;10488108;28;19922;-88
2021/12/05 22:24:10;;;;;;;48.60;23.97;;;;;;;-1.83;100.00;101044.81;10506458;28;20517;-87
2021/12/05 22:29:17;;;;;;;50.33;24.13;;;;;;;-3.11;100.00;100707.53;10472997;28;20081;-87
2021/12/05 22:34:22;;;;;;;57.10;26.20;;;;;;;-3.81;100.00;100763.63;10493900;28;20032;-88
2021/12/05 22:39:28;;;;;;;55.10;27.93;;;;;;;-6.74;100.00;100233.31;10472951;28;20484;-95
2021/12/05 22:44:31;;;;;;;60.60;29.80;;;;;;;-1.02;100.00;101078.09;10493911;28;20035;-95
2021/12/05 22:49:35;;;;;;;56.78;27.40;;;;;;;-3.19;100.00;100820.63;10457391;28;20048;-87
2021/12/05 22:54:35;;;;;;;55.33;27.40;;;;;;;-3.08;100.00;100866.09;10471090;28;20040;-88
2021/12/05 22:59:39;;;;;;;55.53;27.33;;;;;;;-5.26;100.00;100437.69;10490380;28;20032;-94
2021/12/05 23:04:42;;;;;;;52.73;26.70;;;;;;;-1.87;100.00;100865.34;10530768;28;20064;-94
2021/12/05 23:09:50;;;;;;;56.30;27.73;;;;;;;-3.62;100.00;100628.78;10498411;28;20044;-88
2021/12/05 23:14:50;;;;;;;59.07;27.37;;;;;;;-3.56;100.00;100765.34;10508317;28;20064;-88
2021/12/05 23:19:51;;;;;;;56.17;26.65;;;;;;;-4.22;100.00;100690.88;10473865;28;20067;-95
2021/12/05 23:24:56;;;;;;;62.23;29.73;;;;;;;-5.09;100.00;100573.63;10482861;28;20095;-95
2021/12/05 23:29:59;;;;;;;64.83;29.20;;;;;;;-3.50;100.00;100699.28;10481461;28;20024;-95
2021/12/05 23:35:06;;;;;;;60.20;28.03;;;;;;;-3.70;100.00;100693.34;10482193;28;20024;-88
2021/12/05 23:40:10;;;;;;;61.28;28.17;;;;;;;-4.26;100.00;100703.78;10481748;28;20024;-88
2021/12/05 23:45:15;;;;;;;60.35;27.67;;;;;;;-5.21;100.00;100400.47;10483332;28;20032;-96
2021/12/05 23:50:23;;;;;;;62.43;28.27;;;;;;;-3.56;100.00;100668.47;10498978;28;20067;-94
2021/12/05 23:55:31;;;;;;;65.03;32.03;;;;;;;-2.56;100.00;100978.16;10485532;28;20065;-87
